WetterOnline ( https://www.wetteronline.at )

Wetter aktuell Helgoland

Aktuelles Wetter: Helgoland/Düne (8m)

6-stündlich | Neueste Meldungen
Ortszeit Temperatur Wetter
Mi, 30.11. 7:00 6.0° C bedeckt
Mi, 30.11. 1:00 5.7° C leichter Regen
Di, 29.11. 19:00 5.8° C Sprühregen
Di, 29.11. 13:00 5.7° C bedeckt
Di, 29.11. 7:00 6.3° C bedeckt
Di, 29.11. 1:00 6.7° C leichter Regen
Mo, 28.11. 19:00 7.1° C leichter Regen
Mo, 28.11. 13:00 7.6° C leichter Regen
Ortszeit Temperatur Wetter
Mi, 30.11. 7:30 6.0° C bewölkt
Mi, 30.11. 7:20 6.0° C bewölkt
Mi, 30.11. 7:10 5.9° C bewölkt
Mi, 30.11. 7:00 6.0° C bedeckt
Mi, 30.11. 6:50 6.0° C bedeckt
Mi, 30.11. 6:40 5.9° C bedeckt
Mi, 30.11. 6:30 5.9° C bedeckt
Mi, 30.11. 6:00 5.9° C bedeckt
Mi, 30.11. 5:30 6.0° C bewölkt
Mi, 30.11. 5:00 5.9° C leichter Regen
Mi, 30.11. 4:30 5.6° C leichter Regen
Ortszeit Relative Feuchte Sichtweite
Mi, 30.11. 7:00 87% 9 km
Mi, 30.11. 1:00 91% 5.0 km
Di, 29.11. 19:00 95% 2.5 km
Di, 29.11. 13:00 94% 5.0 km
Di, 29.11. 7:00 94% 9 km
Di, 29.11. 1:00 95% 3.0 km
Mo, 28.11. 19:00 93% 7 km
Mo, 28.11. 13:00 93% 6 km
Ortszeit Relative Feuchte Sichtweite
Mi, 30.11. 7:30 86% 9 km
Mi, 30.11. 7:20 86% -
Mi, 30.11. 7:10 86% -
Mi, 30.11. 7:00 87% 9 km
Mi, 30.11. 6:50 87% -
Mi, 30.11. 6:40 86% -
Mi, 30.11. 6:30 88% 8 km
Mi, 30.11. 6:00 86% 10 km
Mi, 30.11. 5:30 88% 9 km
Mi, 30.11. 5:00 89% 5.0 km
Mi, 30.11. 4:30 90% 4.0 km
Ortszeit Niederschlagsmenge Niederschlagsart
Mi, 30.11. 7:00 0.8 l/m2 in 12 Std. Regen
Mi, 30.11. 1:00 0.2 l/m2 in 6 Std. Regen
Di, 29.11. 19:00 0.1 l/m2 in 12 Std. Sprühregen
Di, 29.11. 13:00 0.1 l/m2 in 6 Std. Regen
Di, 29.11. 7:00 6 l/m2 in 12 Std. Regen
Di, 29.11. 1:00 5 l/m2 in 6 Std. Regen, Niederschlag
Mo, 28.11. 19:00 3 l/m2 in 12 Std. Regen
Mo, 28.11. 13:00 0.3 l/m2 in 6 Std. Regen
Ortszeit Niederschlagsmenge Niederschlagsart
Mi, 30.11. 7:30 0.0 l/m2 in 1 Std. -
Mi, 30.11. 7:20 keine Meldung -
Mi, 30.11. 7:10 keine Meldung -
Mi, 30.11. 7:00 0.0 l/m2 in 1 Std. Regen
Mi, 30.11. 6:50 keine Meldung -
Mi, 30.11. 6:40 keine Meldung -
Mi, 30.11. 6:30 0.0 l/m2 in 1 Std. -
Mi, 30.11. 6:00 0.1 l/m2 in 1 Std. Regen
Mi, 30.11. 5:30 0.1 l/m2 in 1 Std. Schneeregen
Mi, 30.11. 5:00 0.4 l/m2 in 1 Std. Regen
Mi, 30.11. 4:30 0.1 l/m2 in 1 Std. -
Ortszeit Stärke Spitze Richtung
km/h Bft. km/h Grad Sektor
Mi, 30.11. 7:00 25 4 32 80° O
Mi, 30.11. 1:00 18 3 29 90° O
Di, 29.11. 19:00 20 4 28 90° O
Di, 29.11. 13:00 22 4 40 100° O
Di, 29.11. 7:00 26 4 37 120° SO
Di, 29.11. 1:00 22 4 32 140° SO
Mo, 28.11. 19:00 22 4 36 150° SO
Mo, 28.11. 13:00 25 4 47 170° S
Ortszeit Stärke Spitze Richtung
km/h Bft. km/h Grad Sektor
Mi, 30.11. 7:30 24 4 30 80° O
Mi, 30.11. 7:20 24 4 - 80° O
Mi, 30.11. 7:10 22 4 - 80° O
Mi, 30.11. 7:00 25 4 32 80° O
Mi, 30.11. 6:50 25 4 - 80° O
Mi, 30.11. 6:40 25 4 - 80° O
Mi, 30.11. 6:30 26 4 31 80° O
Mi, 30.11. 6:00 22 4 30 90° O
Mi, 30.11. 5:30 22 4 28 80° O
Mi, 30.11. 5:00 18 3 29 80° O
Mi, 30.11. 4:30 22 4 29 80° O
Ortszeit Untergrenze Bedeckung Gattung
total tief tief mittel hoch
Mi, 30.11. 7:00 300 m 8/8 8/8 - - -
Mi, 30.11. 1:00 240 m 8/8 8/8 - - -
Di, 29.11. 19:00 150 m 7/8 7/8 - - -
Di, 29.11. 13:00 150 m 8/8 8/8 - - -
Di, 29.11. 7:00 150 m 8/8 8/8 - - -
Di, 29.11. 1:00 150 m 8/8 8/8 - - -
Mo, 28.11. 19:00 150 m 8/8 8/8 - - -
Mo, 28.11. 13:00 180 m 8/8 8/8 - - -
Ortszeit Bedeckungsgrad in Achtel und Wolkenuntergrenze
Mi, 30.11. 7:30 6(360m) 7(570m)
Mi, 30.11. 7:20 6(360m) 7(570m)
Mi, 30.11. 7:10 7
Mi, 30.11. 7:00 5(300m) 8(480m)
Mi, 30.11. 6:50 5(300m) 8(480m)
Mi, 30.11. 6:40 8
Mi, 30.11. 6:30 6(330m) 8(480m)
Mi, 30.11. 6:00 7(390m) 8(630m)
Mi, 30.11. 5:30 7(360m)
Mi, 30.11. 5:00 7(300m)
Mi, 30.11. 4:30 7(300m)
Ortszeit Luftdruck NN (hPa) Tendenz (hPa in 3 Std.)
Mi, 30.11. 7:00 1024 + 0,9
Mi, 30.11. 1:00 1023 + 0,8
Di, 29.11. 19:00 1021 + 1,2
Di, 29.11. 13:00 1019 + 1,1
Di, 29.11. 7:00 1016 + 1,7
Di, 29.11. 1:00 1014 + 0,7
Mo, 28.11. 19:00 1012 + 1,2
Mo, 28.11. 13:00 1010 + 0,5
Ortszeit Luftdruck NN (hPa) Tendenz (hPa in 3 Std.)
Mi, 30.11. 7:30 1024 + 0,8
Mi, 30.11. 7:20 1024 keine Meldung
Mi, 30.11. 7:10 1024 keine Meldung
Mi, 30.11. 7:00 1024 + 0,9
Mi, 30.11. 6:50 1024 keine Meldung
Mi, 30.11. 6:40 1024 keine Meldung
Mi, 30.11. 6:30 1024 + 0,7
Mi, 30.11. 6:00 1024 + 0,5
Mi, 30.11. 5:30 1024 + 0,7
Mi, 30.11. 5:00 1024 + 0,6
Mi, 30.11. 4:30 1024 + 0,6
Ortszeit Schneehöhe (cm)
Mi, 30.11. 7:00 0
Mi, 30.11. 1:00 0
Di, 29.11. 19:00 0
Di, 29.11. 13:00 0
Di, 29.11. 7:00 0
Di, 29.11. 1:00 0
Mo, 28.11. 19:00 0
Mo, 28.11. 13:00 0
Ortszeit Schneehöhe (cm)
Mi, 30.11. 7:30 0
Mi, 30.11. 7:20 0
Mi, 30.11. 7:10 0
Mi, 30.11. 7:00 0
Mi, 30.11. 6:50 0
Mi, 30.11. 6:40 0
Mi, 30.11. 6:30 0
Mi, 30.11. 6:00 0
Mi, 30.11. 5:30 0
Mi, 30.11. 5:00 0
Mi, 30.11. 4:30 0
Link zu dieser Seite / Seite empfehlen

Das Wetter in ...